Time;durP1;ratioP1;P1;durP2;ratioP2;P2;SDS_P1;SDS_P2;PMS_P1;PMS_P2;Temp;Humidity;BMP_temperature;BMP_pressure;BME280_temperature;BME280_humidity;BME280_pressure;Samples;Min_cycle;Max_cycle;Signal;HPM_P1;HPM_P2
2023/08/18 00:01:45;;;;;;;4.18;2.80;;;16.30;99.90;;;;;;5012614;28;20072;-87
2023/08/18 00:04:11;;;;;;;4.20;2.42;;;16.30;99.90;;;;;;5013967;28;20038;-88
2023/08/18 00:06:39;;;;;;;3.20;2.50;;;16.30;99.90;;;;;;5011816;28;20028;-88
2023/08/18 00:09:05;;;;;;;4.03;2.65;;;16.30;99.90;;;;;;5019559;28;20025;-88
2023/08/18 00:11:30;;;;;;;3.65;2.15;;;16.30;99.90;;;;;;5013911;28;20026;-87
2023/08/18 00:13:56;;;;;;;4.38;2.53;;;16.30;99.90;;;;;;5032975;28;20190;-88
2023/08/18 00:16:21;;;;;;;4.72;2.35;;;16.30;99.90;;;;;;5031984;28;20030;-88
2023/08/18 00:18:47;;;;;;;3.03;1.92;;;16.30;99.90;;;;;;5031755;28;20395;-88
2023/08/18 00:21:13;;;;;;;2.72;2.45;;;16.30;99.90;;;;;;5016907;28;20036;-89
2023/08/18 00:23:38;;;;;;;3.05;1.90;;;16.30;99.90;;;;;;5012100;28;20033;-89
2023/08/18 00:26:05;;;;;;;5.00;2.45;;;16.30;99.90;;;;;;5012238;28;20022;-88
2023/08/18 00:28:31;;;;;;;3.30;1.95;;;16.20;99.90;;;;;;5011674;28;20022;-88
2023/08/18 00:30:57;;;;;;;3.20;2.10;;;16.20;99.90;;;;;;5011872;28;20513;-88
2023/08/18 00:33:22;;;;;;;1.83;1.35;;;16.30;99.90;;;;;;5012481;28;20037;-88
2023/08/18 00:35:48;;;;;;;3.20;1.73;;;16.30;99.90;;;;;;5012148;28;20030;-87
2023/08/18 00:38:13;;;;;;;1.67;1.55;;;16.20;99.90;;;;;;5013194;28;20053;-88
2023/08/18 00:40:39;;;;;;;4.25;1.90;;;16.30;99.90;;;;;;5013015;28;20097;-86
2023/08/18 00:43:05;;;;;;;3.28;1.70;;;16.20;99.90;;;;;;5012396;28;20469;-88
2023/08/18 00:45:31;;;;;;;5.35;2.08;;;16.20;99.90;;;;;;5011771;28;20026;-89
2023/08/18 00:47:56;;;;;;;3.75;1.50;;;16.20;99.90;;;;;;5011617;28;20045;-87
2023/08/18 00:50:22;;;;;;;5.50;1.88;;;16.30;99.90;;;;;;5011811;28;20118;-87
2023/08/18 00:52:56;;;;;;;5.03;1.85;;;16.20;99.90;;;;;;5017326;28;20477;-87
2023/08/18 00:55:22;;;;;;;2.88;1.88;;;16.30;99.90;;;;;;5012133;28;20095;-88
2023/08/18 00:57:49;;;;;;;3.20;1.52;;;16.30;99.90;;;;;;5011326;28;20551;-87
2023/08/18 01:00:15;;;;;;;3.70;1.55;;;16.20;99.90;;;;;;5010414;28;20081;-88
2023/08/18 01:02:41;;;;;;;3.38;1.85;;;16.20;99.90;;;;;;5013246;28;20026;-91
2023/08/18 01:05:06;;;;;;;3.58;1.77;;;16.20;99.90;;;;;;5012279;28;20037;-87
2023/08/18 01:07:32;;;;;;;2.63;1.52;;;16.20;99.90;;;;;;5020189;28;20129;-88
2023/08/18 01:09:58;;;;;;;3.67;1.52;;;16.20;99.90;;;;;;5030988;28;20025;-88
2023/08/18 01:12:36;;;;;;;3.03;1.58;;;16.20;99.90;;;;;;5031234;28;20022;-87
2023/08/18 01:15:12;;;;;;;5.40;1.55;;;16.20;99.90;;;;;;4992348;28;20035;-88
2023/08/18 01:17:48;;;;;;;1.63;1.52;;;16.10;99.90;;;;;;5003959;28;20022;-87
2023/08/18 01:20:14;;;;;;;5.75;1.85;;;16.10;99.90;;;;;;5016526;28;20097;-88
2023/08/18 01:22:40;;;;;;;4.43;1.63;;;16.10;99.90;;;;;;5015295;28;20516;-87
2023/08/18 01:25:06;;;;;;;2.58;1.55;;;16.20;99.90;;;;;;5015828;28;20032;-88
2023/08/18 01:27:33;;;;;;;4.57;1.63;;;16.10;99.90;;;;;;5016052;28;20080;-88
2023/08/18 01:30:00;;;;;;;1.38;1.27;;;16.10;99.90;;;;;;5014969;28;20524;-88
2023/08/18 01:32:32;;;;;;;4.63;2.10;;;16.10;99.90;;;;;;5014321;28;20053;-87
2023/08/18 01:35:00;;;;;;;5.40;2.15;;;16.10;99.90;;;;;;5015273;28;20022;-88
2023/08/18 01:37:30;;;;;;;6.47;1.90;;;16.10;99.90;;;;;;5016301;28;20030;-89
2023/08/18 01:39:58;;;;;;;4.03;1.27;;;16.10;99.90;;;;;;5020229;28;20045;-86
2023/08/18 01:42:24;;;;;;;3.53;1.40;;;16.20;99.90;;;;;;5040956;28;20089;-89
2023/08/18 01:44:50;;;;;;;4.30;1.50;;;16.10;99.90;;;;;;5038319;28;20033;-87
2023/08/18 01:47:16;;;;;;;2.08;1.70;;;16.10;99.90;;;;;;5018724;28;20616;-88
2023/08/18 01:49:41;;;;;;;3.40;1.67;;;16.10;99.90;;;;;;5014131;28;20479;-88
2023/08/18 01:52:07;;;;;;;3.58;1.75;;;16.20;99.90;;;;;;5015100;28;20025;-88
2023/08/18 01:54:33;;;;;;;2.30;1.80;;;16.10;99.90;;;;;;5014547;28;20547;-89
2023/08/18 01:56:59;;;;;;;1.70;1.52;;;16.20;99.90;;;;;;5014144;28;20029;-87
2023/08/18 01:59:24;;;;;;;2.10;1.73;;;16.20;99.90;;;;;;5014123;28;20033;-87
2023/08/18 02:01:50;;;;;;;4.07;2.30;;;16.20;99.90;;;;;;5013097;28;20570;-88
2023/08/18 02:04:15;;;;;;;7.45;2.45;;;16.20;99.90;;;;;;5013448;28;20034;-87
2023/08/18 02:06:41;;;;;;;5.00;2.28;;;16.20;99.90;;;;;;5014039;28;20014;-87
2023/08/18 02:09:07;;;;;;;6.25;2.00;;;16.20;99.90;;;;;;5013041;28;20477;-88
2023/08/18 02:11:32;;;;;;;4.70;1.92;;;16.20;99.90;;;;;;5013843;28;20565;-87
2023/08/18 02:13:58;;;;;;;3.63;2.17;;;16.20;99.90;;;;;;5013319;28;20026;-87
2023/08/18 02:16:23;;;;;;;4.30;1.70;;;16.20;99.90;;;;;;5013316;28;20064;-88
2023/08/18 02:18:50;;;;;;;5.30;2.03;;;16.20;99.90;;;;;;5013314;28;20048;-89
2023/08/18 02:21:15;;;;;;;2.55;1.70;;;16.20;99.90;;;;;;5013359;28;20022;-87
2023/08/18 02:23:41;;;;;;;2.80;1.90;;;16.20;99.90;;;;;;5017348;28;20531;-88
2023/08/18 02:26:07;;;;;;;1.98;1.67;;;16.20;99.90;;;;;;5013443;28;20033;-88
2023/08/18 02:28:33;;;;;;;4.78;2.17;;;16.20;99.90;;;;;;5012409;28;20088;-88
2023/08/18 02:31:03;;;;;;;4.65;1.92;;;16.20;99.90;;;;;;5012357;28;20057;-88
2023/08/18 02:33:30;;;;;;;2.45;2.25;;;16.20;99.90;;;;;;5012394;28;20131;-87
2023/08/18 02:35:56;;;;;;;4.15;2.70;;;16.20;99.90;;;;;;5012518;28;20057;-87
2023/08/18 02:38:21;;;;;;;4.22;2.05;;;16.10;99.90;;;;;;5012973;28;20088;-88
2023/08/18 02:40:47;;;;;;;4.75;1.88;;;16.20;99.90;;;;;;5013464;28;20121;-88
2023/08/18 02:43:13;;;;;;;4.18;1.98;;;16.20;99.90;;;;;;5013090;28;20041;-87
2023/08/18 02:45:39;;;;;;;7.82;2.70;;;16.10;99.90;;;;;;5013681;28;20022;-87
2023/08/18 02:48:04;;;;;;;2.28;2.08;;;16.10;99.90;;;;;;5013054;28;20089;-88
2023/08/18 02:50:30;;;;;;;3.42;2.17;;;16.10;99.90;;;;;;5012531;28;20109;-88
2023/08/18 02:53:00;;;;;;;3.83;1.70;;;16.10;99.90;;;;;;5013281;28;20048;-87
2023/08/18 02:55:27;;;;;;;3.90;2.05;;;16.10;99.90;;;;;;5021996;28;20091;-87
2023/08/18 02:57:53;;;;;;;3.83;2.30;;;16.10;99.90;;;;;;5015478;28;20109;-87
2023/08/18 03:00:18;;;;;;;6.15;1.90;;;16.20;99.90;;;;;;5014284;28;20065;-87
2023/08/18 03:02:44;;;;;;;2.17;1.90;;;16.20;99.90;;;;;;5014196;28;20044;-87
2023/08/18 03:05:09;;;;;;;6.53;2.35;;;16.20;99.90;;;;;;5014204;28;20037;-88
2023/08/18 03:07:35;;;;;;;1.95;1.75;;;16.20;99.90;;;;;;5028477;28;20018;-90
2023/08/18 03:10:01;;;;;;;2.20;2.00;;;16.20;99.90;;;;;;5037490;28;20018;-90
2023/08/18 03:12:26;;;;;;;4.93;2.55;;;16.20;99.90;;;;;;5032557;28;20034;-88
2023/08/18 03:14:52;;;;;;;8.20;2.17;;;16.20;99.90;;;;;;5019073;28;20052;-88
2023/08/18 03:17:18;;;;;;;3.90;2.38;;;16.20;99.90;;;;;;5023843;28;20021;-87
2023/08/18 03:19:43;;;;;;;2.92;2.28;;;16.20;99.90;;;;;;5015183;28;20029;-88
2023/08/18 03:22:09;;;;;;;4.70;2.47;;;16.20;99.90;;;;;;5015381;28;20036;-87
2023/08/18 03:24:34;;;;;;;4.90;2.90;;;16.20;99.90;;;;;;5014428;28;20401;-87
2023/08/18 03:27:00;;;;;;;6.97;3.20;;;16.20;99.90;;;;;;5015044;28;20080;-88
2023/08/18 03:29:26;;;;;;;6.97;3.33;;;16.20;99.90;;;;;;5013597;28;20460;-87
2023/08/18 03:31:51;;;;;;;6.93;3.65;;;16.20;99.90;;;;;;5012867;28;20060;-88
2023/08/18 03:34:17;;;;;;;5.88;3.13;;;16.10;99.90;;;;;;5013750;28;20381;-88
2023/08/18 03:36:43;;;;;;;12.48;4.25;;;16.10;99.90;;;;;;5013832;28;20026;-88
2023/08/18 03:39:09;;;;;;;5.53;3.28;;;16.10;99.90;;;;;;5019934;28;20080;-88
2023/08/18 03:41:35;;;;;;;8.00;3.97;;;16.10;99.90;;;;;;5034073;28;20477;-87
2023/08/18 03:44:00;;;;;;;8.63;3.97;;;16.10;99.90;;;;;;5032461;28;20025;-88
2023/08/18 03:46:26;;;;;;;6.82;3.88;;;16.10;99.90;;;;;;5017388;28;20393;-88
2023/08/18 03:48:52;;;;;;;7.63;5.10;;;16.10;99.90;;;;;;5014060;28;20024;-88
2023/08/18 03:51:17;;;;;;;8.93;4.38;;;16.10;99.90;;;;;;5013888;28;20048;-87
2023/08/18 03:53:43;;;;;;;5.75;4.38;;;16.10;99.90;;;;;;5013439;28;20026;-87
2023/08/18 03:56:10;;;;;;;5.88;3.80;;;16.10;99.90;;;;;;5012700;28;20469;-88
2023/08/18 03:58:35;;;;;;;10.25;4.80;;;16.10;99.90;;;;;;5012623;28;20025;-88
2023/08/18 04:01:04;;;;;;;9.23;4.47;;;16.10;99.90;;;;;;5011371;28;20052;-88
2023/08/18 04:03:30;;;;;;;5.93;4.13;;;16.10;99.90;;;;;;5011713;28;20033;-88
2023/08/18 04:05:56;;;;;;;8.18;4.47;;;16.10;99.90;;;;;;5012462;28;20025;-87
2023/08/18 04:08:22;;;;;;;6.43;4.03;;;16.10;99.90;;;;;;5012564;28;20030;-87
2023/08/18 04:10:48;;;;;;;7.22;4.35;;;16.10;99.90;;;;;;5013110;28;20022;-88
2023/08/18 04:13:13;;;;;;;9.60;4.50;;;16.10;99.90;;;;;;5012483;28;20036;-87
2023/08/18 04:15:39;;;;;;;8.25;4.63;;;16.10;99.90;;;;;;5013223;28;20021;-88
2023/08/18 04:18:05;;;;;;;9.13;4.88;;;16.10;99.90;;;;;;5031296;28;20029;-88
2023/08/18 04:20:31;;;;;;;6.47;4.68;;;16.10;99.90;;;;;;5031469;28;20026;-88
2023/08/18 04:22:57;;;;;;;9.55;4.88;;;16.10;99.90;;;;;;5031047;28;20033;-88
2023/08/18 04:25:23;;;;;;;5.65;5.15;;;16.10;99.90;;;;;;5030733;28;20116;-88
2023/08/18 04:27:49;;;;;;;9.00;5.45;;;16.20;99.90;;;;;;5030787;28;20017;-88
2023/08/18 04:30:14;;;;;;;9.65;5.18;;;16.20;99.90;;;;;;5018127;28;20030;-88
2023/08/18 04:32:41;;;;;;;8.27;5.78;;;16.20;99.90;;;;;;5011057;28;20026;-88
2023/08/18 04:35:07;;;;;;;8.63;6.15;;;16.20;99.90;;;;;;5011200;28;20028;-87
2023/08/18 04:37:32;;;;;;;9.38;5.78;;;16.20;99.90;;;;;;5011147;28;20118;-88
2023/08/18 04:39:58;;;;;;;8.93;4.85;;;16.30;99.90;;;;;;5011150;28;20030;-88
2023/08/18 04:42:24;;;;;;;8.70;5.70;;;16.30;99.90;;;;;;5027015;28;20025;-90
2023/08/18 04:44:50;;;;;;;8.95;5.97;;;16.30;99.90;;;;;;5025539;28;20133;-88
2023/08/18 04:47:17;;;;;;;9.05;6.45;;;16.30;99.90;;;;;;5012005;28;20021;-88
2023/08/18 04:49:43;;;;;;;9.07;5.53;;;16.30;99.90;;;;;;5012551;28;20465;-88
2023/08/18 04:52:12;;;;;;;6.93;5.63;;;16.30;99.90;;;;;;5021978;28;20037;-87
2023/08/18 04:54:37;;;;;;;9.80;5.97;;;16.30;99.90;;;;;;5015056;28;20536;-87
2023/08/18 04:57:07;;;;;;;9.70;5.07;;;16.30;99.90;;;;;;5014689;28;20030;-87
2023/08/18 04:59:33;;;;;;;10.63;5.30;;;16.40;99.90;;;;;;5014679;28;20034;-88
2023/08/18 05:01:58;;;;;;;7.40;6.13;;;16.40;99.90;;;;;;5013936;28;20344;-87
2023/08/18 05:04:24;;;;;;;11.25;6.25;;;16.40;99.90;;;;;;5018700;28;20029;-88
2023/08/18 05:06:50;;;;;;;8.68;5.38;;;16.50;99.90;;;;;;5036210;28;20064;-86
2023/08/18 05:09:16;;;;;;;6.82;5.50;;;16.50;99.90;;;;;;5053662;28;20045;-87
2023/08/18 05:11:41;;;;;;;12.05;5.97;;;16.50;99.90;;;;;;5035894;28;20029;-88
2023/08/18 05:14:07;;;;;;;11.05;5.68;;;16.50;99.90;;;;;;5034252;28;20028;-88
2023/08/18 05:16:33;;;;;;;9.63;5.65;;;16.50;99.90;;;;;;5035378;28;20105;-89
2023/08/18 05:18:59;;;;;;;12.82;6.68;;;16.50;99.90;;;;;;5034192;28;20468;-88
2023/08/18 05:21:25;;;;;;;9.32;6.65;;;16.60;99.90;;;;;;5034531;28;20028;-87
2023/08/18 05:23:50;;;;;;;6.57;4.70;;;16.60;99.90;;;;;;5034086;28;20112;-87
2023/08/18 05:26:16;;;;;;;10.52;6.82;;;16.60;99.90;;;;;;5034009;28;20021;-88
2023/08/18 05:28:43;;;;;;;13.20;7.50;;;16.60;99.90;;;;;;5034043;28;20519;-88
2023/08/18 05:31:09;;;;;;;12.45;8.15;;;16.70;99.90;;;;;;5014029;28;20069;-89
2023/08/18 05:33:35;;;;;;;13.93;9.43;;;16.70;99.90;;;;;;5021748;28;20034;-88
2023/08/18 05:36:02;;;;;;;12.93;8.73;;;16.70;99.90;;;;;;5014292;28;20032;-88
2023/08/18 05:38:27;;;;;;;13.65;8.95;;;16.80;99.90;;;;;;5014020;28;20037;-88
2023/08/18 05:40:56;;;;;;;12.10;9.15;;;16.80;99.90;;;;;;5015184;28;20022;-87
2023/08/18 05:43:22;;;;;;;15.38;9.35;;;16.80;99.90;;;;;;5015073;28;20026;-90
2023/08/18 05:45:48;;;;;;;16.17;9.73;;;16.90;99.90;;;;;;5015512;28;20522;-86
2023/08/18 05:48:14;;;;;;;14.68;10.00;;;16.90;99.90;;;;;;5016649;28;20102;-87
2023/08/18 05:50:40;;;;;;;13.18;8.82;;;16.90;99.90;;;;;;5016694;28;20030;-88
2023/08/18 05:53:06;;;;;;;14.43;9.32;;;16.90;99.90;;;;;;5017853;28;20076;-88
2023/08/18 05:55:32;;;;;;;10.95;8.63;;;16.90;99.90;;;;;;5014487;28;20022;-87
2023/08/18 05:58:00;;;;;;;16.60;9.77;;;17.00;99.90;;;;;;5014036;28;20050;-87
2023/08/18 06:00:26;;;;;;;13.68;8.88;;;17.00;99.90;;;;;;5013694;28;20505;-88
2023/08/18 06:02:53;;;;;;;10.20;7.65;;;17.00;99.90;;;;;;5013648;28;20030;-88
2023/08/18 06:05:19;;;;;;;15.18;9.20;;;17.00;99.90;;;;;;5020835;28;20021;-88
2023/08/18 06:07:45;;;;;;;18.02;9.82;;;17.00;99.90;;;;;;5023980;28;20022;-89
2023/08/18 06:10:13;;;;;;;9.35;8.15;;;17.10;99.90;;;;;;5029239;28;20036;-87
2023/08/18 06:12:39;;;;;;;17.80;8.88;;;17.10;99.90;;;;;;5032189;28;20028;-88
2023/08/18 06:15:06;;;;;;;10.80;8.05;;;17.10;99.90;;;;;;5032444;28;20362;-88
2023/08/18 06:17:32;;;;;;;11.80;9.07;;;17.10;99.90;;;;;;5023914;28;20021;-88
2023/08/18 06:19:59;;;;;;;11.65;8.80;;;17.20;99.90;;;;;;5023559;28;20028;-88
2023/08/18 06:22:25;;;;;;;14.80;8.60;;;17.20;99.90;;;;;;5032591;28;20021;-89
2023/08/18 06:24:51;;;;;;;11.43;8.93;;;17.20;99.90;;;;;;5019109;28;20033;-88
2023/08/18 06:27:17;;;;;;;12.45;8.48;;;17.20;99.90;;;;;;5012410;28;20080;-88
2023/08/18 06:29:42;;;;;;;14.00;9.85;;;17.30;99.90;;;;;;5024105;28;20024;-88
2023/08/18 06:32:08;;;;;;;15.80;9.48;;;17.30;99.90;;;;;;5011744;28;20066;-88
2023/08/18 06:34:33;;;;;;;11.23;9.25;;;17.40;99.90;;;;;;5013255;28;20029;-86
2023/08/18 06:36:59;;;;;;;12.82;9.32;;;17.40;99.90;;;;;;5027125;28;20025;-89
2023/08/18 06:39:25;;;;;;;14.18;9.70;;;17.40;99.90;;;;;;5023809;28;20041;-88
2023/08/18 06:41:52;;;;;;;11.23;7.95;;;17.40;99.90;;;;;;5013238;28;20030;-88
2023/08/18 06:44:19;;;;;;;18.60;9.43;;;17.40;99.90;;;;;;4995906;28;20026;-88
2023/08/18 06:46:44;;;;;;;12.23;8.13;;;17.50;99.90;;;;;;5012232;28;20370;-88
2023/08/18 06:49:10;;;;;;;12.00;9.15;;;17.50;99.90;;;;;;5012123;28;20030;-89
2023/08/18 06:51:35;;;;;;;10.63;8.75;;;17.50;99.90;;;;;;5012125;28;20112;-87
2023/08/18 06:54:01;;;;;;;12.50;8.50;;;17.60;99.90;;;;;;5026427;28;20037;-88
2023/08/18 06:56:27;;;;;;;11.10;9.00;;;17.60;99.90;;;;;;5014322;28;20503;-88
2023/08/18 06:58:53;;;;;;;11.85;8.90;;;17.70;99.90;;;;;;5011972;28;20053;-88
2023/08/18 07:01:18;;;;;;;12.95;9.52;;;17.70;99.90;;;;;;5012221;28;20042;-87
2023/08/18 07:03:44;;;;;;;11.07;8.07;;;17.70;99.90;;;;;;5013063;28;20049;-88
2023/08/18 07:06:10;;;;;;;10.95;8.95;;;17.70;99.90;;;;;;5013026;28;20095;-88
2023/08/18 07:08:35;;;;;;;14.80;9.57;;;17.80;99.90;;;;;;5017572;28;20018;-88
2023/08/18 07:11:02;;;;;;;10.95;8.98;;;17.80;99.90;;;;;;5013619;28;20531;-88
2023/08/18 07:13:28;;;;;;;16.95;10.00;;;17.80;99.90;;;;;;5034091;28;20037;-91
2023/08/18 07:15:54;;;;;;;10.18;8.65;;;17.80;99.90;;;;;;5030682;28;20029;-91
2023/08/18 07:18:19;;;;;;;8.88;7.93;;;17.90;99.90;;;;;;5017011;28;20620;-88
2023/08/18 07:20:46;;;;;;;10.80;9.70;;;17.90;99.90;;;;;;5021057;28;20021;-87
2023/08/18 07:23:11;;;;;;;11.13;8.77;;;17.90;99.90;;;;;;5017849;28;20026;-88
2023/08/18 07:25:39;;;;;;;9.95;8.18;;;17.90;99.90;;;;;;5011638;28;20484;-89
2023/08/18 07:28:05;;;;;;;14.30;9.25;;;18.00;99.90;;;;;;5017470;28;20022;-90
2023/08/18 07:30:31;;;;;;;11.55;9.43;;;18.00;99.90;;;;;;5023101;28;20049;-89
2023/08/18 07:32:57;;;;;;;14.25;9.55;;;18.00;99.90;;;;;;5017571;28;20079;-89
2023/08/18 07:35:23;;;;;;;12.93;9.25;;;18.10;99.90;;;;;;5028321;28;20029;-88
2023/08/18 07:37:49;;;;;;;10.48;9.10;;;18.10;99.90;;;;;;5028564;28;20032;-88
2023/08/18 07:40:15;;;;;;;14.63;9.73;;;18.10;99.90;;;;;;5019096;28;20112;-90
2023/08/18 07:42:41;;;;;;;12.80;8.63;;;18.10;99.90;;;;;;5016151;28;20057;-87
2023/08/18 07:45:07;;;;;;;10.57;8.18;;;18.10;99.90;;;;;;5011889;28;20028;-89
2023/08/18 07:47:34;;;;;;;14.27;9.68;;;18.10;99.90;;;;;;5011473;28;20034;-88
2023/08/18 07:50:00;;;;;;;12.23;9.32;;;18.20;99.90;;;;;;5023724;28;20056;-88
2023/08/18 07:52:25;;;;;;;10.02;8.73;;;18.20;99.90;;;;;;5019650;28;20392;-88
2023/08/18 07:54:51;;;;;;;9.73;8.02;;;18.20;99.90;;;;;;5020195;28;20030;-87
2023/08/18 07:57:17;;;;;;;9.73;8.13;;;18.20;99.90;;;;;;5010450;28;20026;-88
2023/08/18 07:59:42;;;;;;;10.27;9.27;;;18.30;99.90;;;;;;5010904;28;20099;-88
2023/08/18 08:02:08;;;;;;;10.68;8.23;;;18.20;99.90;;;;;;5011372;28;20060;-87
2023/08/18 08:04:34;;;;;;;9.68;8.40;;;18.30;99.90;;;;;;5010582;28;20030;-89
2023/08/18 08:06:59;;;;;;;10.80;9.35;;;18.30;99.90;;;;;;5011089;28;20481;-88
2023/08/18 08:09:25;;;;;;;14.98;10.73;;;18.40;99.90;;;;;;5010756;28;20033;-88
2023/08/18 08:11:52;;;;;;;14.93;9.80;;;18.30;99.90;;;;;;5012728;28;20485;-89
2023/08/18 08:14:18;;;;;;;11.05;9.32;;;18.30;99.90;;;;;;5025748;28;20049;-88
2023/08/18 08:16:44;;;;;;;11.57;8.60;;;18.30;99.90;;;;;;5030076;28;20045;-88
2023/08/18 08:19:10;;;;;;;12.00;9.02;;;18.40;99.90;;;;;;5015595;28;20408;-90
2023/08/18 08:21:36;;;;;;;11.43;9.65;;;18.50;99.90;;;;;;5010496;28;20037;-90
2023/08/18 08:24:04;;;;;;;11.38;8.73;;;18.50;99.90;;;;;;5023344;28;20025;-90
2023/08/18 08:26:29;;;;;;;11.07;8.80;;;18.50;99.90;;;;;;5017869;28;20022;-88
2023/08/18 08:28:55;;;;;;;13.13;9.90;;;18.60;99.90;;;;;;5027651;28;20071;-86
2023/08/18 08:31:20;;;;;;;10.43;9.32;;;18.60;99.90;;;;;;5013374;28;20099;-87
2023/08/18 08:33:46;;;;;;;13.52;9.82;;;18.70;99.90;;;;;;5017531;28;20045;-88
2023/08/18 08:36:12;;;;;;;12.38;8.43;;;18.60;99.90;;;;;;5025975;28;20017;-87
2023/08/18 08:38:37;;;;;;;11.32;9.25;;;18.60;99.90;;;;;;5014343;28;20121;-87
2023/08/18 08:41:03;;;;;;;9.65;8.57;;;18.70;99.90;;;;;;5014340;28;20079;-88
2023/08/18 08:43:29;;;;;;;10.32;8.20;;;18.70;99.90;;;;;;5014280;28;20030;-88
2023/08/18 08:45:58;;;;;;;10.45;8.07;;;18.80;99.90;;;;;;5013989;28;20503;-87
2023/08/18 08:48:28;;;;;;;13.02;9.07;;;18.90;99.90;;;;;;5021814;28;20475;-87
2023/08/18 08:50:55;;;;;;;10.07;8.40;;;18.90;99.90;;;;;;5015629;28;20067;-87
2023/08/18 08:53:29;;;;;;;9.38;8.38;;;19.00;99.90;;;;;;5015996;28;20030;-88
2023/08/18 08:56:00;;;;;;;9.82;8.00;;;19.00;99.90;;;;;;4994102;28;20034;-91
2023/08/18 08:58:29;;;;;;;11.27;9.13;;;19.00;99.90;;;;;;5024886;28;20065;-87
2023/08/18 09:00:55;;;;;;;13.70;8.23;;;19.10;99.90;;;;;;5013163;28;20505;-88
2023/08/18 09:03:21;;;;;;;13.10;8.40;;;19.10;99.90;;;;;;5021581;28;20092;-87
2023/08/18 09:05:47;;;;;;;7.82;7.13;;;19.20;99.90;;;;;;5022324;28;20020;-88
2023/08/18 09:08:13;;;;;;;9.73;8.75;;;19.20;99.90;;;;;;5022007;28;20220;-88
2023/08/18 09:10:39;;;;;;;11.75;8.95;;;19.30;99.90;;;;;;5013568;28;20034;-89
2023/08/18 09:13:05;;;;;;;8.80;8.02;;;19.30;99.90;;;;;;5019474;28;20026;-90
2023/08/18 09:15:31;;;;;;;10.40;8.20;;;19.40;99.90;;;;;;5027673;28;20377;-90
2023/08/18 09:17:57;;;;;;;11.23;8.82;;;19.40;99.90;;;;;;5019302;28;20106;-89
2023/08/18 09:20:23;;;;;;;12.32;9.05;;;19.40;99.90;;;;;;5015338;28;20615;-88
2023/08/18 09:22:54;;;;;;;10.93;9.40;;;19.40;99.90;;;;;;5013534;28;20075;-88
2023/08/18 09:25:20;;;;;;;9.15;8.10;;;19.50;99.90;;;;;;5013543;28;20081;-88
2023/08/18 09:27:45;;;;;;;10.15;9.02;;;19.50;99.90;;;;;;5019689;28;20511;-88
2023/08/18 09:30:11;;;;;;;13.38;8.63;;;19.60;99.90;;;;;;5013024;28;20120;-88
2023/08/18 09:32:37;;;;;;;12.95;10.05;;;19.60;99.90;;;;;;5028535;28;20481;-88
2023/08/18 09:35:09;;;;;;;9.23;8.30;;;19.60;99.90;;;;;;5023196;28;20022;-88
2023/08/18 09:37:35;;;;;;;9.50;8.35;;;19.60;99.90;;;;;;5018814;28;20036;-88
2023/08/18 09:40:02;;;;;;;10.13;8.05;;;19.60;99.90;;;;;;5028062;28;20031;-89
2023/08/18 09:42:28;;;;;;;10.55;9.45;;;19.70;99.90;;;;;;5013615;28;20125;-88
2023/08/18 09:44:54;;;;;;;11.07;8.65;;;19.70;99.90;;;;;;5032720;28;20040;-88
2023/08/18 09:47:23;;;;;;;12.60;9.05;;;19.80;99.90;;;;;;5033319;28;20021;-88
2023/08/18 09:49:51;;;;;;;11.75;9.93;;;19.90;99.90;;;;;;5014638;28;20028;-87
2023/08/18 09:52:18;;;;;;;9.55;7.70;;;19.80;99.90;;;;;;5017511;28;20022;-89
2023/08/18 09:54:54;;;;;;;7.95;7.20;;;19.90;99.90;;;;;;5017669;28;20025;-88
2023/08/18 09:57:33;;;;;;;10.80;8.70;;;20.00;99.90;;;;;;5029179;28;20404;-88
2023/08/18 10:00:01;;;;;;;9.65;7.80;;;20.10;99.90;;;;;;5014551;28;20069;-88
2023/08/18 10:02:33;;;;;;;8.63;7.82;;;20.20;99.90;;;;;;5022391;28;20049;-87
2023/08/18 10:04:59;;;;;;;8.48;7.55;;;20.40;99.90;;;;;;5023725;28;20033;-87
2023/08/18 10:07:26;;;;;;;9.35;8.05;;;20.50;99.90;;;;;;5031145;28;20018;-87
2023/08/18 10:09:54;;;;;;;8.60;7.75;;;20.50;99.90;;;;;;5026625;28;20032;-89
2023/08/18 10:12:20;;;;;;;11.23;8.07;;;20.50;99.90;;;;;;5011978;28;20026;-87
2023/08/18 10:14:46;;;;;;;9.50;8.52;;;20.50;99.90;;;;;;5020685;28;20026;-88
2023/08/18 10:17:14;;;;;;;10.13;7.43;;;20.70;99.90;;;;;;5012936;28;20025;-87
2023/08/18 10:19:52;;;;;;;10.13;8.48;;;20.70;99.90;;;;;;5026629;28;20156;-88
2023/08/18 10:22:19;;;;;;;10.77;8.57;;;20.80;99.90;;;;;;5019663;28;20489;-88
2023/08/18 10:24:46;;;;;;;10.38;8.07;;;21.00;99.90;;;;;;5028227;28;20117;-87
2023/08/18 10:27:28;;;;;;;9.68;8.52;;;21.00;99.90;;;;;;5018195;28;20021;-87
2023/08/18 10:30:19;;;;;;;9.27;7.20;;;21.10;99.90;;;;;;5008140;28;20022;-87
2023/08/18 10:32:45;;;;;;;9.57;8.25;;;21.10;99.90;;;;;;5020964;28;20461;-87
2023/08/18 10:35:26;;;;;;;9.38;8.48;;;21.20;99.90;;;;;;5016813;28;20041;-89
2023/08/18 10:37:57;;;;;;;8.73;6.72;;;21.20;99.90;;;;;;5013844;28;20032;-86
2023/08/18 10:40:30;;;;;;;7.95;7.18;;;21.30;99.90;;;;;;5024655;28;20017;-89
2023/08/18 10:43:02;;;;;;;11.25;7.10;;;21.40;99.90;;;;;;5018187;28;20034;-88
2023/08/18 10:45:29;;;;;;;11.63;7.43;;;21.60;99.90;;;;;;5018193;28;20018;-87
2023/08/18 10:48:00;;;;;;;8.15;7.32;;;21.70;99.90;;;;;;5016024;28;20077;-89
2023/08/18 10:50:30;;;;;;;7.97;7.28;;;21.70;99.90;;;;;;5026090;28;20026;-87
2023/08/18 10:52:56;;;;;;;8.55;7.32;;;21.80;99.90;;;;;;5019697;28;20045;-87
2023/08/18 10:55:23;;;;;;;8.73;7.93;;;21.90;99.90;;;;;;5027267;28;20032;-87
2023/08/18 10:57:49;;;;;;;8.23;6.90;;;21.90;99.90;;;;;;5019167;28;20037;-86
2023/08/18 11:00:17;;;;;;;12.07;6.60;;;21.90;99.90;;;;;;5019017;28;20343;-87
2023/08/18 11:02:44;;;;;;;7.38;6.65;;;22.00;99.90;;;;;;5023556;28;20027;-87
2023/08/18 11:05:10;;;;;;;6.82;6.22;;;21.90;99.90;;;;;;5024882;28;20026;-88
2023/08/18 11:07:36;;;;;;;9.15;7.00;;;22.00;99.90;;;;;;5028363;28;20021;-88
2023/08/18 11:10:21;;;;;;;9.02;7.65;;;22.00;99.90;;;;;;5016223;28;20512;-88
2023/08/18 11:12:56;;;;;;;7.53;6.85;;;21.80;99.90;;;;;;5024555;28;20083;-87
2023/08/18 11:15:22;;;;;;;7.78;6.97;;;21.90;99.90;;;;;;5012839;28;20022;-87
2023/08/18 11:17:49;;;;;;;8.00;7.20;;;21.90;99.90;;;;;;5036306;28;20055;-90
2023/08/18 11:20:15;;;;;;;7.82;7.13;;;21.90;99.90;;;;;;5041985;28;20022;-88
2023/08/18 11:22:54;;;;;;;9.48;7.75;;;21.90;99.90;;;;;;5033963;28;20033;-86
2023/08/18 11:25:22;;;;;;;10.23;7.68;;;21.80;99.90;;;;;;5019454;28;20021;-87
2023/08/18 11:27:49;;;;;;;9.63;7.05;;;21.70;99.90;;;;;;5023191;28;20108;-86
2023/08/18 11:30:15;;;;;;;11.07;7.78;;;21.70;99.90;;;;;;5022306;28;20060;-86
2023/08/18 11:32:41;;;;;;;7.40;6.18;;;21.70;99.90;;;;;;5022158;28;20027;-86
2023/08/18 11:35:09;;;;;;;8.18;7.03;;;21.70;99.90;;;;;;5017379;28;20468;-85
2023/08/18 11:37:42;;;;;;;9.18;6.70;;;21.80;99.90;;;;;;5014226;28;20022;-85
2023/08/18 11:40:12;;;;;;;7.88;7.07;;;21.80;99.90;;;;;;5020956;28;20465;-86
2023/08/18 11:43:08;;;;;;;9.15;7.45;;;21.90;99.90;;;;;;5017486;28;20025;-86
2023/08/18 11:45:34;;;;;;;8.60;7.37;;;21.90;99.90;;;;;;5026471;28;20057;-85
2023/08/18 11:48:03;;;;;;;10.40;6.88;;;22.00;99.90;;;;;;5013733;28;20030;-86
2023/08/18 11:50:37;;;;;;;9.05;6.55;;;22.10;99.90;;;;;;5028689;28;20078;-84
2023/08/18 11:53:04;;;;;;;6.80;6.13;;;22.20;99.90;;;;;;5019768;28;20377;-85
2023/08/18 11:55:34;;;;;;;7.95;7.18;;;22.30;99.90;;;;;;5025316;28;20030;-85
2023/08/18 11:58:06;;;;;;;6.97;6.28;;;22.40;99.90;;;;;;5018435;28;20022;-85
2023/08/18 12:00:35;;;;;;;8.68;7.85;;;22.50;99.90;;;;;;5018773;28;20088;-85
2023/08/18 12:03:02;;;;;;;7.85;6.47;;;22.60;99.90;;;;;;5022408;28;20471;-85
2023/08/18 12:05:29;;;;;;;9.48;7.00;;;22.70;99.90;;;;;;5021090;28;20501;-85
2023/08/18 12:07:55;;;;;;;8.40;6.63;;;22.80;99.90;;;;;;5024767;28;20026;-85
2023/08/18 12:10:21;;;;;;;10.38;7.32;;;22.80;99.90;;;;;;5018158;28;20066;-85
2023/08/18 12:12:56;;;;;;;8.15;6.78;;;22.90;99.90;;;;;;5020643;28;20025;-83
2023/08/18 12:15:25;;;;;;;8.35;7.55;;;22.90;99.90;;;;;;5016886;28;20402;-85
2023/08/18 12:17:50;;;;;;;8.50;6.97;;;22.90;99.90;;;;;;5010472;28;20401;-86
2023/08/18 12:20:20;;;;;;;8.82;7.97;;;23.00;99.90;;;;;;5021304;28;20032;-83
2023/08/18 12:22:50;;;;;;;7.07;6.35;;;23.10;99.90;;;;;;5015080;28;20022;-86
2023/08/18 12:25:16;;;;;;;8.20;7.38;;;23.20;99.90;;;;;;5018060;28;20408;-85
2023/08/18 12:27:46;;;;;;;8.15;6.93;;;23.30;99.90;;;;;;5018241;28;20568;-84
2023/08/18 12:30:15;;;;;;;7.00;6.05;;;23.40;99.90;;;;;;5017874;28;20026;-86
2023/08/18 12:32:44;;;;;;;7.38;6.28;;;23.40;99.90;;;;;;5019712;28;20045;-85
2023/08/18 12:35:13;;;;;;;8.07;7.28;;;23.40;99.90;;;;;;5015883;28;20057;-86
2023/08/18 12:37:39;;;;;;;7.75;7.10;;;23.40;99.90;;;;;;5014497;28;20327;-85
2023/08/18 12:40:05;;;;;;;7.32;6.63;;;23.40;99.90;;;;;;5022785;28;20032;-86
2023/08/18 12:42:32;;;;;;;7.97;6.93;;;23.40;99.90;;;;;;5018403;28;20021;-85